宮崎空港の過去48時間の天気

宮崎空港 (Miyazaki)

現在時刻: 4/26 20:20 JST (4/26 11:20 UTC) 以下の時間は現地時間です。

過去48時間のMETAR気象情報
時間 風向 風速(m/s) 視程 気温(℃) 湿度(%) 気圧(hPa) 天気現象
26 20:00 北北東 1 10km以上 18 83 1012
26 19:00 2 10km以上 18 83 1012
26 18:00 東南東 2 10km以上 19 78 1012
26 17:00 東南東 2 10km以上 19 73 1012
26 16:00 2 10km以上 19 73 1012
26 15:00 東北東 2 10km以上 19 68 1012
26 14:00 北東 3 10km以上 19 56 1012
26 13:00 北東 4 10km以上 19 56 1013
26 12:00 北東 4 10km以上 19 56 1013
26 11:00 北東 3 10km以上 19 56 1013
26 10:00 北東 5 10km以上 18 60 1013
26 09:00 東北東 2 10km以上 17 72 1013
26 08:00 西北西 2 10km以上 15 94 1013
26 07:00 西 2 10km以上 14 94 1012
26 06:10 西 2 10km以上 13 94 1011
25 21:00 北東 7 10km以上 18 77 1010
25 20:00 北東 7 10km以上 19 73 1009
25 19:00 北東 5 10km以上 19 78 1008
25 18:00 北東 5 10km以上 19 78 1007
25 17:00 北東 6 10km以上 19 78 1007
25 16:00 東北東 5 10km以上 20 68 1007
25 15:00 東北東 6 10km以上 20 73 1007
25 14:00 東北東 5 10km以上 21 69 1006
25 13:00 東北東 5 10km以上 21 69 1007
25 12:00 5 10km以上 21 73 1007
25 11:00 東北東 5 10km以上 21 73 1007
25 10:00 東北東 6 10km以上 20 78 1007
25 09:37 東北東 5 10km以上 19 83 1007
25 09:00 西北西 3 10km以上 21 73 1006
25 08:00 西 5 10km以上 20 78 1006
25 07:00 西 4 10km以上 18 88 1005
25 06:10 西 3 10km以上 18 88 1004
24 21:00 南南西 4 10km以上 23 89 1002
RJFM 261100Z 02002KT 9999 FEW050 BKN/// 18/15 Q1012
RJFM 261000Z 09003KT 9999 FEW050 SCT150 BKN/// 18/15 Q1012
RJFM 260900Z 11004KT 9999 FEW050 19/15 Q1012
RJFM 260800Z 11003KT 070V140 9999 FEW040 BKN/// 19/14 Q1012
RJFM 260700Z 09004KT 060V140 9999 FEW040 SCT180 BKN/// 19/14 Q1012
RJFM 260600Z 06004KT 030V120 9999 FEW040 BKN/// 19/13 Q1012
RJFM 260500Z 05006KT 030V100 9999 FEW040 BKN/// 19/10 Q1012
RJFM 260400Z 05007KT 9999 FEW025 SCT/// 19/10 Q1013
RJFM 260300Z 05008KT 9999 FEW025 BKN/// 19/10 Q1013
RJFM 260200Z 05006KT 9999 FEW025 BKN/// 19/10 Q1013
RJFM 260100Z 05009KT 9999 FEW020 BKN/// 18/10 Q1013
RJFM 260000Z 06004KT 020V090 9999 FEW015 BKN/// 17/12 Q1013
RJFM 252300Z 29003KT 260V340 9999 FEW010 SCT015 BKN/// 15/14 Q1013
RJFM 252200Z 28003KT 9999 FEW010 SCT015 BKN/// 14/13 Q1012
RJFM 252110Z 27003KT 9999 FEW020 SCT050 BKN/// 13/12 Q1011 RMK 1CU020 3SC050 A2987
RJFM 251200Z 05014KT 9999 SCT030 SCT/// 18/14 Q1010
RJFM 251100Z 05013KT 9999 BKN030 19/14 Q1009
RJFM 251000Z 05010KT 9999 FEW020 BKN030 19/15 Q1008
RJFM 250900Z 05010KT 9999 FEW020 BKN026 19/15 Q1007
RJFM 250800Z 05011KT 360V080 9999 FEW020 BKN027 19/15 Q1007
RJFM 250700Z 06010KT 9999 FEW020 BKN027 20/14 Q1007
RJFM 250600Z 06011KT 9999 FEW015 SCT025 BKN/// 20/15 Q1007
RJFM 250500Z 06010KT 9999 FEW020 BKN/// 21/15 Q1006
RJFM 250400Z 06009KT 9999 FEW010 SCT045 BKN/// 21/15 Q1007
RJFM 250300Z 08009KT 9999 FEW010 SCT030 BKN/// 21/16 Q1007
RJFM 250200Z 07010KT 040V100 9999 FEW010 SCT020 BKN030 21/16 Q1007
RJFM 250100Z 06011KT 9999 FEW010 SCT020 BKN030 20/16 Q1007
RJFM 250037Z 06010KT 9999 FEW010 SCT020 BKN/// 19/16 Q1007 RMK 1ST010 3CU020 A2975
RJFM 250000Z 29006KT 240V320 9999 FEW010 SCT020 BKN/// 21/16 Q1006
RJFM 242300Z 27009KT 9999 FEW010 SCT020 BKN030 20/16 Q1006
RJFM 242200Z 27007KT 9999 FEW010 SCT015 BKN020 18/16 Q1005
RJFM 242110Z 27006KT 9999 FEW010 SCT025 BKN030 18/16 Q1004 RMK 1ST010 3CU025 5CU030 A2967
RJFM 241200Z 21007KT 9999 FEW010 SCT030 BKN045 23/21 Q1002